createdAt,value
2018-10-02T00:00:09.459Z,5.00
2018-10-02T00:02:38.279Z,4.90
2018-10-02T00:05:06.988Z,4.90
2018-10-02T00:07:36.025Z,4.90
2018-10-02T00:10:04.963Z,4.80
2018-10-02T00:12:39.066Z,4.70
2018-10-02T00:15:08.229Z,4.70
2018-10-02T00:17:37.102Z,4.70
2018-10-02T00:20:05.965Z,4.60
2018-10-02T00:22:34.947Z,4.60
2018-10-02T00:25:03.855Z,4.60
2018-10-02T00:27:32.747Z,4.60
2018-10-02T00:30:01.601Z,4.60
2018-10-02T00:32:30.492Z,4.50
2018-10-02T00:34:59.423Z,4.50
2018-10-02T00:37:28.274Z,4.50
2018-10-02T00:39:57.200Z,4.40
2018-10-02T00:42:26.049Z,4.40
2018-10-02T00:44:54.879Z,4.40
2018-10-02T00:47:23.765Z,4.40
2018-10-02T00:49:52.556Z,4.40
2018-10-02T00:52:21.386Z,4.40
2018-10-02T00:54:50.232Z,4.40
2018-10-02T00:57:19.071Z,4.50
2018-10-02T00:59:47.958Z,4.50
2018-10-02T01:02:16.845Z,4.50
2018-10-02T01:04:45.653Z,4.50
2018-10-02T01:07:14.508Z,4.50
2018-10-02T01:09:43.336Z,4.50
2018-10-02T01:12:12.161Z,4.50
2018-10-02T01:14:41.000Z,4.50
2018-10-02T01:17:09.832Z,4.50
2018-10-02T01:19:38.684Z,4.50
2018-10-02T01:22:07.539Z,4.50
2018-10-02T01:24:36.485Z,4.50
2018-10-02T01:27:05.427Z,4.60
2018-10-02T01:29:34.268Z,4.50
2018-10-02T01:32:03.092Z,4.50
2018-10-02T01:34:31.996Z,4.50
2018-10-02T01:37:00.789Z,4.50
2018-10-02T01:39:29.629Z,4.60
2018-10-02T01:41:58.447Z,4.60
2018-10-02T01:44:27.286Z,4.50
2018-10-02T01:46:56.125Z,4.50
2018-10-02T01:49:24.970Z,4.50
2018-10-02T01:51:53.801Z,4.40
2018-10-02T01:54:22.682Z,4.40
2018-10-02T01:56:51.582Z,4.40
2018-10-02T01:59:20.403Z,4.40
2018-10-02T02:01:49.274Z,4.40
2018-10-02T02:04:18.101Z,4.40
2018-10-02T02:06:46.967Z,4.40
2018-10-02T02:09:15.910Z,4.30
2018-10-02T02:11:44.808Z,4.30
2018-10-02T02:14:13.636Z,4.30
2018-10-02T02:16:42.547Z,4.30
2018-10-02T02:19:11.393Z,4.30
2018-10-02T02:21:40.298Z,4.30
2018-10-02T02:24:09.176Z,4.30
2018-10-02T02:26:38.061Z,4.30
2018-10-02T02:29:06.991Z,4.40
2018-10-02T02:31:35.928Z,4.40
2018-10-02T02:34:04.772Z,4.40
2018-10-02T02:36:33.619Z,4.40
2018-10-02T02:39:02.526Z,4.40
2018-10-02T02:41:31.370Z,4.30
2018-10-02T02:44:00.217Z,4.40
2018-10-02T02:46:29.112Z,4.40
2018-10-02T02:49:03.242Z,4.40
2018-10-02T02:51:33.582Z,4.40
2018-10-02T02:54:02.437Z,4.40
2018-10-02T02:56:31.624Z,4.40
2018-10-02T02:59:01.317Z,4.30
2018-10-02T03:01:30.534Z,4.30
2018-10-02T03:03:59.697Z,4.20
2018-10-02T03:06:28.645Z,4.20
2018-10-02T03:08:57.544Z,4.20
2018-10-02T03:11:26.427Z,4.10
2018-10-02T03:13:55.270Z,4.10
2018-10-02T03:16:24.100Z,4.10
2018-10-02T03:18:53.008Z,4.00
2018-10-02T03:21:21.917Z,4.00
2018-10-02T03:23:50.774Z,3.90
2018-10-02T03:26:19.585Z,3.90
2018-10-02T03:28:48.435Z,3.90
2018-10-02T03:31:17.307Z,3.90
2018-10-02T03:33:46.170Z,3.90
2018-10-02T03:36:15.088Z,3.90
2018-10-02T03:38:43.963Z,3.80
2018-10-02T03:41:12.918Z,3.80
2018-10-02T03:43:41.760Z,3.90
2018-10-02T03:46:10.640Z,3.90
2018-10-02T03:48:39.558Z,3.90
2018-10-02T03:51:08.377Z,3.90
2018-10-02T03:53:37.269Z,3.80
2018-10-02T03:56:06.166Z,3.80
2018-10-02T03:58:34.991Z,3.80
2018-10-02T04:01:03.882Z,3.70
2018-10-02T04:03:32.749Z,3.80
2018-10-02T04:06:01.685Z,3.70
2018-10-02T04:08:30.508Z,3.70
2018-10-02T04:10:59.363Z,3.60
2018-10-02T04:13:28.208Z,3.60
2018-10-02T04:15:57.152Z,3.60
2018-10-02T04:18:26.058Z,3.50
2018-10-02T04:20:55.011Z,3.40
2018-10-02T04:23:23.967Z,3.40
2018-10-02T04:25:52.775Z,3.40
2018-10-02T04:28:21.649Z,3.30
2018-10-02T04:30:50.528Z,3.30
2018-10-02T04:33:19.378Z,3.30
2018-10-02T04:35:48.263Z,3.20
2018-10-02T04:38:17.110Z,3.20
2018-10-02T04:40:45.994Z,3.20
2018-10-02T04:43:14.896Z,3.10
2018-10-02T04:45:43.859Z,3.10
2018-10-02T04:48:12.685Z,3.10
2018-10-02T04:50:41.554Z,3.20
2018-10-02T04:53:10.380Z,3.20
2018-10-02T04:55:39.356Z,3.20
2018-10-02T04:58:08.207Z,3.20
2018-10-02T05:00:37.095Z,3.20
2018-10-02T05:03:05.979Z,3.20
2018-10-02T05:05:34.950Z,3.20
2018-10-02T05:08:03.822Z,3.20
2018-10-02T05:10:32.744Z,3.20
2018-10-02T05:13:01.595Z,3.20
2018-10-02T05:15:30.381Z,3.30
2018-10-02T05:17:59.258Z,3.30
2018-10-02T05:20:28.094Z,3.30
2018-10-02T05:22:57.001Z,3.30
2018-10-02T05:25:25.841Z,3.40
2018-10-02T05:27:54.753Z,3.40
2018-10-02T05:30:23.625Z,3.40
2018-10-02T05:32:52.617Z,3.40
2018-10-02T05:35:21.513Z,3.40
2018-10-02T05:37:50.318Z,3.40
2018-10-02T05:40:19.246Z,3.50
2018-10-02T05:42:48.207Z,3.50
2018-10-02T05:45:17.167Z,3.50
2018-10-02T05:47:46.005Z,3.50
2018-10-02T05:50:14.833Z,3.50
2018-10-02T05:52:43.691Z,3.60
2018-10-02T05:55:12.579Z,3.60
2018-10-02T05:57:41.479Z,3.60
2018-10-02T06:00:13.077Z,3.70
2018-10-02T06:02:46.441Z,3.80
2018-10-02T06:05:15.465Z,3.80
2018-10-02T06:07:44.427Z,3.90
2018-10-02T06:10:13.303Z,3.90
2018-10-02T06:12:42.202Z,4.00
2018-10-02T06:15:11.076Z,4.10
2018-10-02T06:17:40.211Z,4.10
2018-10-02T06:20:09.137Z,4.20
2018-10-02T06:22:38.015Z,4.40
2018-10-02T06:25:06.917Z,4.60
2018-10-02T06:27:35.852Z,4.80
2018-10-02T06:30:05.237Z,5.00
2018-10-02T06:32:34.233Z,5.20
2018-10-02T06:35:03.164Z,5.40
2018-10-02T06:37:32.108Z,5.50
2018-10-02T06:40:00.944Z,5.60
2018-10-02T06:42:29.910Z,5.70
2018-10-02T06:44:58.758Z,5.80
2018-10-02T06:47:27.780Z,5.90
2018-10-02T06:49:56.639Z,6.00
2018-10-02T06:52:25.753Z,6.10
2018-10-02T06:54:54.525Z,6.20
2018-10-02T06:57:23.361Z,6.40
2018-10-02T06:59:52.324Z,6.50
2018-10-02T07:02:21.214Z,6.60
2018-10-02T07:04:50.209Z,6.80
2018-10-02T07:07:19.107Z,6.90
2018-10-02T07:09:47.987Z,7.00
2018-10-02T07:12:16.936Z,7.00
2018-10-02T07:14:45.898Z,7.10
2018-10-02T07:17:14.896Z,7.10
2018-10-02T07:19:43.820Z,7.20
2018-10-02T07:22:12.701Z,7.30
2018-10-02T07:24:41.619Z,7.40
2018-10-02T07:27:10.615Z,7.40
2018-10-02T07:29:39.503Z,7.50
2018-10-02T07:32:08.350Z,7.60
2018-10-02T07:34:37.208Z,7.60
2018-10-02T07:37:06.122Z,7.70
2018-10-02T07:39:34.970Z,7.80
2018-10-02T07:42:03.942Z,7.90
2018-10-02T07:44:32.863Z,8.00
2018-10-02T07:47:01.720Z,8.10
2018-10-02T07:49:30.747Z,8.20
2018-10-02T07:51:59.714Z,8.30
2018-10-02T07:54:28.534Z,8.40
2018-10-02T07:56:57.395Z,8.60
2018-10-02T07:59:26.344Z,8.70
2018-10-02T08:01:55.233Z,9.00
2018-10-02T08:04:24.261Z,9.30
2018-10-02T08:06:53.181Z,9.60
2018-10-02T08:09:22.038Z,10.10
2018-10-02T08:11:50.933Z,10.80
2018-10-02T08:14:19.817Z,11.50
2018-10-02T08:16:48.661Z,11.70
2018-10-02T08:19:17.612Z,11.60
2018-10-02T08:21:46.589Z,11.60
2018-10-02T08:24:15.688Z,11.60
2018-10-02T08:26:44.712Z,11.90
2018-10-02T08:29:13.693Z,12.20
2018-10-02T08:31:42.520Z,12.50
2018-10-02T08:34:11.433Z,12.30
2018-10-02T08:36:40.316Z,12.00
2018-10-02T08:39:10.128Z,11.70
2018-10-02T08:41:39.212Z,11.50
2018-10-02T08:44:08.125Z,11.40
2018-10-02T08:46:37.137Z,11.30
2018-10-02T08:49:06.017Z,11.30
2018-10-02T08:51:35.338Z,11.30
2018-10-02T08:54:04.550Z,11.50
2018-10-02T08:56:33.314Z,11.60
2018-10-02T08:59:02.270Z,11.60
2018-10-02T09:01:31.206Z,11.60
2018-10-02T09:04:00.060Z,11.50
2018-10-02T09:06:29.002Z,11.40
2018-10-02T09:08:57.826Z,11.10
2018-10-02T09:11:26.762Z,10.90
2018-10-02T09:13:55.678Z,10.70
2018-10-02T09:16:24.600Z,10.70
2018-10-02T09:18:53.543Z,10.70
2018-10-02T09:21:22.669Z,10.90
2018-10-02T09:23:51.676Z,11.20
2018-10-02T09:26:20.545Z,11.40
2018-10-02T09:28:49.438Z,11.70
2018-10-02T09:31:23.404Z,11.80
2018-10-02T09:33:57.580Z,11.80
2018-10-02T09:36:31.677Z,11.90
2018-10-02T09:39:05.772Z,11.80
2018-10-02T09:41:40.030Z,11.80
2018-10-02T09:44:08.833Z,11.60
2018-10-02T09:46:37.877Z,11.60
2018-10-02T09:49:06.879Z,11.50
2018-10-02T09:51:35.714Z,11.50
2018-10-02T09:54:04.643Z,11.60
2018-10-02T09:56:38.901Z,11.70
2018-10-02T09:59:07.967Z,11.80
2018-10-02T10:01:42.223Z,11.80
2018-10-02T10:04:11.149Z,11.70
2018-10-02T10:06:40.029Z,11.60
2018-10-02T10:09:09.625Z,11.60
2018-10-02T10:11:38.577Z,11.50
2018-10-02T10:14:07.629Z,11.50
2018-10-02T10:16:36.638Z,11.40
2018-10-02T10:19:05.892Z,11.30
2018-10-02T10:21:34.808Z,11.30
2018-10-02T10:24:03.737Z,11.50
2018-10-02T10:26:32.636Z,11.60
2018-10-02T10:29:01.660Z,11.70
2018-10-02T10:31:30.703Z,11.80
2018-10-02T10:33:59.801Z,11.70
2018-10-02T10:36:28.678Z,11.70
2018-10-02T10:38:57.584Z,11.70
2018-10-02T10:41:35.386Z,11.80
2018-10-02T10:44:04.283Z,11.80
2018-10-02T10:46:33.446Z,11.80
2018-10-02T10:49:02.399Z,11.90
2018-10-02T10:51:31.241Z,11.80
2018-10-02T10:54:00.787Z,11.60
2018-10-02T10:56:29.675Z,11.40
2018-10-02T10:58:58.626Z,11.20
2018-10-02T11:01:27.465Z,11.20
2018-10-02T11:03:56.396Z,11.20
2018-10-02T11:06:25.278Z,11.20
2018-10-02T11:08:54.117Z,11.20
2018-10-02T11:11:22.988Z,11.10
2018-10-02T11:13:51.861Z,11.00
2018-10-02T11:16:20.791Z,11.00
2018-10-02T11:18:49.680Z,10.90
2018-10-02T11:21:18.561Z,10.70
2018-10-02T11:23:47.518Z,10.50
2018-10-02T11:26:16.398Z,10.40
2018-10-02T11:28:45.294Z,10.30
2018-10-02T11:31:14.174Z,10.20
2018-10-02T11:33:43.063Z,10.10
2018-10-02T11:36:11.966Z,10.10
2018-10-02T11:38:40.829Z,10.00
2018-10-02T11:41:09.737Z,10.00
2018-10-02T11:43:38.738Z,10.10
2018-10-02T11:46:08.134Z,10.10
2018-10-02T11:48:37.023Z,10.20
2018-10-02T11:51:06.048Z,10.20
2018-10-02T11:53:34.935Z,10.30
2018-10-02T11:56:03.842Z,10.30
2018-10-02T11:58:32.658Z,10.40
2018-10-02T12:01:01.656Z,10.50
2018-10-02T12:03:31.106Z,10.50
2018-10-02T12:06:00.083Z,10.50
2018-10-02T12:08:28.974Z,10.50
2018-10-02T12:10:58.031Z,10.50
2018-10-02T12:13:26.931Z,10.60
2018-10-02T12:15:55.838Z,10.70
2018-10-02T12:18:24.734Z,10.80
2018-10-02T12:20:53.682Z,10.80
2018-10-02T12:23:22.578Z,10.80
2018-10-02T12:25:51.472Z,10.80
2018-10-02T12:28:20.996Z,10.70
2018-10-02T12:30:49.872Z,10.50
2018-10-02T12:33:18.732Z,10.20
2018-10-02T12:35:47.589Z,10.10
2018-10-02T12:38:16.457Z,9.90
2018-10-02T12:40:45.282Z,9.80
2018-10-02T12:43:14.335Z,9.70
2018-10-02T12:45:43.336Z,9.60
2018-10-02T12:48:12.255Z,9.50
2018-10-02T12:50:41.208Z,9.50
2018-10-02T12:53:10.247Z,9.50
2018-10-02T12:55:39.202Z,9.50
2018-10-02T12:58:08.091Z,9.40
2018-10-02T13:00:36.975Z,9.40
2018-10-02T13:03:05.828Z,9.40
2018-10-02T13:05:34.750Z,9.40
2018-10-02T13:08:03.645Z,9.40
2018-10-02T13:10:32.543Z,9.40
2018-10-02T13:13:01.435Z,9.40
2018-10-02T13:15:30.327Z,9.40
2018-10-02T13:17:59.144Z,9.30
2018-10-02T13:20:28.017Z,9.30
2018-10-02T13:22:59.049Z,9.20
2018-10-02T13:25:28.011Z,9.20
2018-10-02T13:27:56.879Z,9.10
2018-10-02T13:30:29.044Z,9.10
2018-10-02T13:33:05.347Z,9.00
2018-10-02T13:35:37.179Z,9.00
2018-10-02T13:38:10.813Z,9.00
2018-10-02T13:40:48.326Z,9.00
2018-10-02T13:43:20.740Z,9.00
2018-10-02T13:45:50.992Z,9.00
2018-10-02T13:48:33.294Z,9.00
2018-10-02T13:51:06.619Z,8.90
2018-10-02T13:53:36.506Z,8.80
2018-10-02T13:56:09.758Z,8.70
2018-10-02T13:58:39.681Z,8.70
2018-10-02T14:01:08.661Z,8.60
2018-10-02T14:03:40.369Z,8.60
2018-10-02T14:06:10.857Z,8.60
2018-10-02T14:08:45.504Z,8.60
2018-10-02T14:11:17.703Z,8.60
2018-10-02T14:13:55.640Z,8.50
2018-10-02T14:16:28.658Z,8.60
2018-10-02T14:19:09.236Z,8.50
2018-10-02T14:21:41.833Z,8.60
2018-10-02T14:24:16.756Z,8.60
2018-10-02T14:26:53.874Z,8.60
2018-10-02T14:32:17.946Z,8.50
2018-10-02T14:34:47.071Z,8.60
2018-10-02T14:37:37.080Z,8.70
2018-10-02T14:40:13.202Z,8.70
2018-10-02T14:42:57.113Z,8.70
2018-10-02T14:45:52.320Z,8.70
2018-10-02T14:48:30.392Z,8.70
2018-10-02T14:51:07.848Z,8.70
2018-10-02T14:53:47.766Z,8.70
2018-10-02T14:56:44.368Z,8.70
2018-10-02T14:59:24.567Z,8.70
2018-10-02T15:04:49.684Z,8.80
2018-10-02T15:07:19.557Z,8.80
2018-10-02T15:09:48.359Z,8.70
2018-10-02T15:12:17.372Z,8.70
2018-10-02T15:14:46.197Z,8.60
2018-10-02T15:17:14.913Z,8.70
2018-10-02T15:19:44.675Z,8.60
2018-10-02T15:22:13.848Z,8.60
2018-10-02T15:24:48.141Z,8.60
2018-10-02T15:27:17.214Z,8.50
2018-10-02T15:29:46.081Z,8.50
2018-10-02T15:32:14.881Z,8.50
2018-10-02T15:34:43.580Z,8.50
2018-10-02T15:37:12.484Z,8.40
2018-10-02T15:39:41.320Z,8.50
2018-10-02T15:42:11.526Z,8.50
2018-10-02T15:44:40.420Z,8.50
2018-10-02T15:47:09.177Z,8.50
2018-10-02T15:49:37.951Z,8.50
2018-10-02T15:52:07.047Z,8.50
2018-10-02T15:54:35.928Z,8.50
2018-10-02T15:57:04.779Z,8.40
2018-10-02T15:59:34.008Z,8.40
2018-10-02T16:02:02.754Z,8.40
2018-10-02T16:04:31.686Z,8.40
2018-10-02T16:07:00.690Z,8.30
2018-10-02T16:09:29.552Z,8.30
2018-10-02T16:11:58.800Z,8.30
2018-10-02T16:14:27.698Z,8.30
2018-10-02T16:16:56.660Z,8.30
2018-10-02T16:19:25.591Z,8.30
2018-10-02T16:21:55.721Z,8.30
2018-10-02T16:24:24.712Z,8.30
2018-10-02T16:26:53.808Z,8.30
2018-10-02T16:29:22.722Z,8.30
2018-10-02T16:31:51.848Z,8.40
2018-10-02T16:34:20.770Z,8.40
2018-10-02T16:36:49.676Z,8.40
2018-10-02T16:39:24.616Z,8.40
2018-10-02T16:41:58.242Z,8.40
2018-10-02T16:44:29.801Z,8.40
2018-10-02T16:46:59.652Z,8.40
2018-10-02T16:49:28.663Z,8.40
2018-10-02T16:52:01.360Z,8.40
2018-10-02T16:54:31.030Z,8.40
2018-10-02T16:57:00.320Z,8.40
2018-10-02T16:59:29.952Z,8.40
2018-10-02T17:02:03.793Z,8.40
2018-10-02T17:04:32.727Z,8.40
2018-10-02T17:07:02.043Z,8.50
2018-10-02T17:09:31.571Z,8.50
2018-10-02T17:12:01.346Z,8.50
2018-10-02T17:14:30.241Z,8.50
2018-10-02T17:17:00.310Z,8.50
2018-10-02T17:19:29.327Z,8.50
2018-10-02T17:21:58.270Z,8.60
2018-10-02T17:24:27.612Z,8.60
2018-10-02T17:26:56.719Z,8.60
2018-10-02T17:29:26.223Z,8.70
2018-10-02T17:31:55.618Z,8.70
2018-10-02T17:34:25.851Z,8.70
2018-10-02T17:36:55.196Z,8.70
2018-10-02T17:39:24.127Z,8.70
2018-10-02T17:41:53.336Z,8.70
2018-10-02T17:44:22.714Z,8.70
2018-10-02T17:46:51.947Z,8.70
2018-10-02T17:49:20.976Z,8.70
2018-10-02T17:51:50.440Z,8.70
2018-10-02T17:54:19.501Z,8.60
2018-10-02T17:56:48.981Z,8.60
2018-10-02T17:59:19.869Z,8.60
2018-10-02T18:01:48.776Z,8.60
2018-10-02T18:04:17.789Z,8.50
2018-10-02T18:06:46.842Z,8.50
2018-10-02T18:09:15.840Z,8.50
2018-10-02T18:11:44.932Z,8.60
2018-10-02T18:14:13.927Z,8.50
2018-10-02T18:16:42.800Z,8.60
2018-10-02T18:19:12.688Z,8.60
2018-10-02T18:21:42.804Z,8.60
2018-10-02T18:24:12.404Z,8.60
2018-10-02T18:26:41.653Z,8.60
2018-10-02T18:29:12.770Z,8.60
2018-10-02T18:31:42.360Z,8.60
2018-10-02T18:34:11.796Z,8.60
2018-10-02T18:36:40.871Z,8.60
2018-10-02T18:39:10.472Z,8.60
2018-10-02T18:41:39.753Z,8.60
2018-10-02T18:44:09.205Z,8.60
2018-10-02T18:46:38.202Z,8.60
2018-10-02T18:49:07.371Z,8.70
2018-10-02T18:51:36.472Z,8.70
2018-10-02T18:54:06.170Z,8.70
2018-10-02T18:56:35.276Z,8.70
2018-10-02T18:59:04.294Z,8.70
2018-10-02T19:01:33.461Z,8.70
2018-10-02T19:04:02.711Z,8.70
2018-10-02T19:06:31.702Z,8.70
2018-10-02T19:09:05.982Z,8.80
2018-10-02T19:11:40.282Z,8.80
2018-10-02T19:14:09.621Z,8.80
2018-10-02T19:16:38.521Z,8.80
2018-10-02T19:19:12.626Z,8.80
2018-10-02T19:21:41.658Z,8.80
2018-10-02T19:24:10.581Z,8.80
2018-10-02T19:26:39.541Z,8.90
2018-10-02T19:29:08.718Z,8.90
2018-10-02T19:31:42.758Z,8.90
2018-10-02T19:34:11.927Z,8.90
2018-10-02T19:36:41.344Z,8.90
2018-10-02T19:39:12.454Z,9.00
2018-10-02T19:41:41.800Z,9.00
2018-10-02T19:44:10.684Z,9.00
2018-10-02T19:46:49.051Z,9.00
2018-10-02T19:49:20.458Z,9.00
2018-10-02T19:51:54.711Z,9.10
2018-10-02T19:54:24.506Z,9.10
2018-10-02T19:56:53.413Z,9.10
2018-10-02T19:59:22.731Z,9.20
2018-10-02T20:01:51.610Z,9.20
2018-10-02T20:04:20.584Z,9.20
2018-10-02T20:06:49.906Z,9.20
2018-10-02T20:09:18.805Z,9.20
2018-10-02T20:11:47.983Z,9.30
2018-10-02T20:14:16.892Z,9.30
2018-10-02T20:16:47.107Z,9.30
2018-10-02T20:19:16.139Z,9.30
2018-10-02T20:21:46.021Z,9.20
2018-10-02T20:24:15.018Z,9.30
2018-10-02T20:26:43.988Z,9.30
2018-10-02T20:29:12.882Z,9.30
2018-10-02T20:31:47.566Z,9.30
2018-10-02T20:34:17.624Z,9.40
2018-10-02T20:36:46.568Z,9.40
2018-10-02T20:39:15.548Z,9.30
2018-10-02T20:41:44.463Z,9.30
2018-10-02T20:44:15.539Z,9.30
2018-10-02T20:46:44.458Z,9.30
2018-10-02T20:49:13.480Z,9.30
2018-10-02T20:51:42.320Z,9.40
2018-10-02T20:54:11.259Z,9.40
2018-10-02T20:56:40.174Z,9.40
2018-10-02T20:59:09.181Z,9.40
2018-10-02T21:01:39.211Z,9.40
2018-10-02T21:04:08.231Z,9.40
2018-10-02T21:06:37.159Z,9.50
2018-10-02T21:09:07.420Z,9.50
2018-10-02T21:11:36.314Z,9.50
2018-10-02T21:14:05.229Z,9.50
2018-10-02T21:16:34.063Z,9.50
2018-10-02T21:19:02.974Z,9.50
2018-10-02T21:21:31.827Z,9.50
2018-10-02T21:24:00.776Z,9.50
2018-10-02T21:26:29.689Z,9.50
2018-10-02T21:28:58.566Z,9.50
2018-10-02T21:31:27.609Z,9.60
2018-10-02T21:33:56.536Z,9.50
2018-10-02T21:36:25.407Z,9.60
2018-10-02T21:38:54.335Z,9.50
2018-10-02T21:41:26.947Z,9.60
2018-10-02T21:43:55.797Z,9.50
2018-10-02T21:46:24.629Z,9.60
2018-10-02T21:48:53.513Z,9.50
2018-10-02T21:51:22.431Z,9.50
2018-10-02T21:53:51.307Z,9.50
2018-10-02T21:56:20.129Z,9.50
2018-10-02T21:58:49.116Z,9.50
2018-10-02T22:01:17.997Z,9.40
2018-10-02T22:03:46.861Z,9.40
2018-10-02T22:06:15.741Z,9.40
2018-10-02T22:08:44.552Z,9.40
2018-10-02T22:11:13.684Z,9.30
2018-10-02T22:13:42.577Z,9.30
2018-10-02T22:16:11.473Z,9.40
2018-10-02T22:18:40.337Z,9.40
2018-10-02T22:21:09.180Z,9.40
2018-10-02T22:23:38.039Z,9.40
2018-10-02T22:26:07.044Z,9.40
2018-10-02T22:28:35.899Z,9.40
2018-10-02T22:31:04.775Z,9.40
2018-10-02T22:33:33.598Z,9.40
2018-10-02T22:36:02.526Z,9.40
2018-10-02T22:38:31.350Z,9.40
2018-10-02T22:41:00.255Z,9.40
2018-10-02T22:43:29.130Z,9.40
2018-10-02T22:45:58.024Z,9.40
2018-10-02T22:48:26.846Z,9.40
2018-10-02T22:50:55.719Z,9.40
2018-10-02T22:53:24.564Z,9.50
2018-10-02T22:55:53.607Z,9.50
2018-10-02T22:58:22.452Z,9.50
2018-10-02T23:00:51.319Z,9.50
2018-10-02T23:03:20.247Z,9.60
2018-10-02T23:05:49.094Z,9.60
2018-10-02T23:08:18.252Z,9.60
2018-10-02T23:10:47.152Z,9.70
2018-10-02T23:13:15.942Z,9.70
2018-10-02T23:15:44.793Z,9.80
2018-10-02T23:18:13.600Z,9.80
2018-10-02T23:20:42.533Z,9.80
2018-10-02T23:23:11.388Z,9.90
2018-10-02T23:25:40.210Z,9.90
2018-10-02T23:28:09.064Z,9.90
2018-10-02T23:30:37.948Z,9.90
2018-10-02T23:33:06.887Z,10.00
2018-10-02T23:35:35.708Z,10.00
2018-10-02T23:38:04.648Z,10.00
2018-10-02T23:40:33.514Z,10.00
2018-10-02T23:43:02.374Z,10.00
2018-10-02T23:45:31.268Z,10.10
2018-10-02T23:48:00.116Z,10.10
2018-10-02T23:50:28.963Z,10.10
2018-10-02T23:52:57.860Z,10.10
2018-10-02T23:55:26.654Z,10.00
2018-10-02T23:57:55.532Z,10.00
